createdAt,value
2023-01-17T00:02:05.743Z,1.37
2023-01-17T00:04:52.164Z,0.57
2023-01-17T00:07:39.456Z,2.50
2023-01-17T00:10:09.989Z,1.33
2023-01-17T00:12:38.217Z,0.70
2023-01-17T00:15:07.578Z,1.17
2023-01-17T00:17:35.257Z,1.23
2023-01-17T00:20:21.951Z,1.13
2023-01-17T00:23:07.166Z,1.27
2023-01-17T00:25:55.948Z,1.00
2023-01-17T00:28:22.949Z,1.13
2023-01-17T00:30:49.537Z,0.93
2023-01-17T00:33:16.453Z,0.87
2023-01-17T00:35:44.482Z,0.93
2023-01-17T00:38:13.282Z,1.23
2023-01-17T00:40:42.476Z,0.50
2023-01-17T00:43:29.105Z,1.33
2023-01-17T00:46:14.518Z,0.50
2023-01-17T00:49:00.410Z,1.17
2023-01-17T00:51:47.871Z,0.50
2023-01-17T00:54:33.908Z,0.83
2023-01-17T00:57:19.754Z,0.50
2023-01-17T01:00:05.262Z,0.77
2023-01-17T01:02:51.522Z,0.50
2023-01-17T01:05:36.889Z,2.13
2023-01-17T01:08:35.209Z,1.23
2023-01-17T01:11:23.541Z,0.40
2023-01-17T01:14:09.098Z,0.40
2023-01-17T01:16:54.301Z,0.50
2023-01-17T01:19:39.764Z,0.50
2023-01-17T01:22:25.085Z,1.13
2023-01-17T01:25:11.838Z,0.60
2023-01-17T01:27:57.274Z,0.40
2023-01-17T01:30:42.513Z,0.77
2023-01-17T01:33:18.684Z,0.53
2023-01-17T01:35:47.275Z,0.60
2023-01-17T01:38:14.960Z,1.03
2023-01-17T01:40:45.453Z,0.70
2023-01-17T01:43:15.684Z,0.80
2023-01-17T01:45:47.978Z,1.20
2023-01-17T01:48:33.645Z,0.67
2023-01-17T01:51:03.247Z,0.70
2023-01-17T01:53:33.655Z,0.50
2023-01-17T01:56:04.397Z,0.67
2023-01-17T01:58:36.914Z,0.57
2023-01-17T02:01:06.320Z,1.17
2023-01-17T02:03:35.223Z,0.40
2023-01-17T02:06:09.779Z,0.67
2023-01-17T02:08:37.651Z,0.40
2023-01-17T02:11:06.865Z,0.50
2023-01-17T02:13:34.747Z,0.60
2023-01-17T02:16:09.058Z,0.93
2023-01-17T02:18:47.311Z,1.67
2023-01-17T02:21:25.049Z,1.77
2023-01-17T02:24:44.718Z,0.70
2023-01-17T02:27:25.718Z,0.53
2023-01-17T02:30:16.865Z,1.20
2023-01-17T02:32:54.109Z,0.83
2023-01-17T02:35:30.801Z,0.50
2023-01-17T02:38:06.807Z,1.07
2023-01-17T02:40:39.965Z,0.87
2023-01-17T02:43:11.765Z,0.50
2023-01-17T02:45:41.242Z,1.60
2023-01-17T02:48:11.922Z,0.80
2023-01-17T02:51:24.787Z,0.80
2023-01-17T02:54:04.896Z,2.10
2023-01-17T02:56:44.842Z,0.60
2023-01-17T02:59:26.066Z,1.47
2023-01-17T03:02:10.333Z,1.27
2023-01-17T03:04:43.001Z,0.60
2023-01-17T03:07:16.412Z,0.60
2023-01-17T03:09:45.848Z,1.73
2023-01-17T03:12:14.249Z,1.10
2023-01-17T03:14:41.917Z,2.17
2023-01-17T03:17:10.973Z,0.90
2023-01-17T03:19:38.640Z,2.13
2023-01-17T03:22:06.330Z,2.70
2023-01-17T03:24:34.045Z,1.87
2023-01-17T03:27:04.243Z,1.33
2023-01-17T03:29:32.327Z,1.00
2023-01-17T03:32:00.164Z,1.53
2023-01-17T03:34:29.448Z,1.47
2023-01-17T03:36:57.173Z,2.67
2023-01-17T03:39:24.904Z,1.33
2023-01-17T03:41:52.703Z,4.10
2023-01-17T03:44:20.369Z,1.53
2023-01-17T03:46:48.176Z,1.90
2023-01-17T03:49:16.655Z,1.00
2023-01-17T03:51:45.749Z,1.73
2023-01-17T03:54:13.449Z,1.53
2023-01-17T03:56:41.209Z,3.83
2023-01-17T03:59:10.426Z,1.07
2023-01-17T04:01:42.374Z,2.30
2023-01-17T04:04:10.047Z,1.93
2023-01-17T04:06:37.813Z,1.87
2023-01-17T04:09:06.941Z,0.80
2023-01-17T04:11:35.024Z,2.53
2023-01-17T04:14:02.801Z,2.53
2023-01-17T04:16:31.979Z,2.00
2023-01-17T04:18:59.968Z,3.63
2023-01-17T04:21:27.703Z,2.40
2023-01-17T04:23:56.442Z,2.20
2023-01-17T04:26:25.468Z,3.30
2023-01-17T04:28:53.364Z,2.10
2023-01-17T04:31:21.086Z,1.30
2023-01-17T04:33:48.814Z,3.63
2023-01-17T04:36:16.496Z,2.17
2023-01-17T04:38:44.202Z,3.27
2023-01-17T04:41:11.929Z,2.50
2023-01-17T04:43:41.011Z,1.47
2023-01-17T04:46:10.115Z,2.80
2023-01-17T04:48:38.267Z,2.47
2023-01-17T04:51:06.873Z,3.83
2023-01-17T04:53:34.592Z,2.63
2023-01-17T04:56:02.285Z,3.43
2023-01-17T04:58:30.517Z,2.50
2023-01-17T05:01:04.145Z,1.20
2023-01-17T05:03:32.554Z,1.20
2023-01-17T05:06:00.321Z,1.30
2023-01-17T05:08:28.016Z,2.10
2023-01-17T05:10:55.684Z,1.60
2023-01-17T05:13:23.417Z,3.20
2023-01-17T05:15:51.437Z,1.60
2023-01-17T05:18:20.538Z,1.40
2023-01-17T05:20:48.269Z,1.80
2023-01-17T05:23:16.017Z,2.73
2023-01-17T05:25:46.333Z,2.13
2023-01-17T05:28:14.937Z,1.97
2023-01-17T05:30:42.728Z,5.27
2023-01-17T05:33:11.204Z,1.73
2023-01-17T05:35:40.254Z,3.37
2023-01-17T05:38:08.102Z,2.90
2023-01-17T05:40:36.218Z,2.80
2023-01-17T05:43:04.561Z,2.43
2023-01-17T05:45:33.487Z,3.77
2023-01-17T05:48:01.935Z,1.73
2023-01-17T05:50:32.259Z,1.43
2023-01-17T05:53:03.271Z,4.30
2023-01-17T05:55:32.490Z,2.63
2023-01-17T05:58:00.671Z,1.83
2023-01-17T06:00:28.956Z,3.20
2023-01-17T06:02:58.056Z,2.13
2023-01-17T06:05:27.219Z,3.97
2023-01-17T06:07:56.507Z,4.33
2023-01-17T06:10:26.391Z,6.33
2023-01-17T06:13:03.058Z,2.37
2023-01-17T06:15:30.762Z,5.57
2023-01-17T06:17:58.575Z,2.73
2023-01-17T06:20:27.301Z,2.10
2023-01-17T06:22:56.551Z,2.53
2023-01-17T06:25:28.099Z,1.97
2023-01-17T06:27:55.814Z,2.50
2023-01-17T06:30:23.646Z,3.70
2023-01-17T06:32:55.180Z,2.27
2023-01-17T06:35:23.144Z,4.00
2023-01-17T06:37:55.445Z,2.90
2023-01-17T06:40:25.318Z,2.93
2023-01-17T06:42:53.159Z,3.17
2023-01-17T06:45:21.393Z,3.67
2023-01-17T06:47:49.157Z,4.17
2023-01-17T06:50:17.457Z,3.33
2023-01-17T06:52:54.847Z,3.37
2023-01-17T06:55:22.788Z,3.60
2023-01-17T06:57:51.891Z,2.03
2023-01-17T07:00:20.365Z,1.87
2023-01-17T07:02:50.673Z,4.40
2023-01-17T07:05:18.794Z,3.13
2023-01-17T07:07:47.131Z,2.93
2023-01-17T07:10:16.626Z,3.93
2023-01-17T07:12:44.368Z,4.20
2023-01-17T07:15:13.962Z,5.67
2023-01-17T07:17:41.783Z,4.83
2023-01-17T07:20:10.796Z,2.27
2023-01-17T07:22:38.507Z,3.83
2023-01-17T07:25:07.046Z,3.00
2023-01-17T07:27:34.738Z,5.20
2023-01-17T07:30:02.532Z,5.93
2023-01-17T07:32:31.615Z,3.47
2023-01-17T07:34:59.289Z,2.00
2023-01-17T07:37:27.064Z,2.33
2023-01-17T07:39:54.904Z,2.77
2023-01-17T07:42:24.189Z,3.77
2023-01-17T07:44:52.095Z,3.83
2023-01-17T07:47:20.973Z,2.30
2023-01-17T07:49:50.052Z,2.93
2023-01-17T07:52:18.339Z,5.07
2023-01-17T07:54:46.135Z,3.40
2023-01-17T07:57:13.920Z,3.87
2023-01-17T07:59:41.654Z,2.63
2023-01-17T08:02:17.588Z,5.33
2023-01-17T08:04:45.381Z,4.53
2023-01-17T08:07:14.969Z,4.30
2023-01-17T08:09:43.195Z,4.50
2023-01-17T08:12:11.467Z,4.93
2023-01-17T08:14:39.204Z,7.40
2023-01-17T08:17:07.594Z,4.73
2023-01-17T08:19:35.256Z,4.77
2023-01-17T08:22:03.003Z,3.33
2023-01-17T08:24:32.082Z,7.23
2023-01-17T08:26:59.813Z,5.67
2023-01-17T08:29:27.586Z,3.30
2023-01-17T08:31:55.255Z,2.90
2023-01-17T08:34:23.146Z,1.57
2023-01-17T08:36:53.883Z,4.60
2023-01-17T08:39:22.378Z,3.33
2023-01-17T08:41:51.706Z,3.47
2023-01-17T08:44:20.057Z,2.87
2023-01-17T08:46:47.768Z,1.90
2023-01-17T08:49:15.552Z,1.93
2023-01-17T08:51:43.357Z,3.37
2023-01-17T08:54:13.279Z,2.40
2023-01-17T08:56:42.728Z,1.93
2023-01-17T08:59:13.055Z,2.23
2023-01-17T09:01:41.902Z,1.90
2023-01-17T09:04:10.277Z,4.13
2023-01-17T09:06:39.283Z,2.80
2023-01-17T09:09:07.579Z,1.53
2023-01-17T09:11:35.426Z,1.83
2023-01-17T09:14:03.143Z,2.67
2023-01-17T09:16:33.106Z,2.37
2023-01-17T09:19:01.224Z,0.93
2023-01-17T09:21:28.865Z,1.87
2023-01-17T09:23:56.748Z,1.53
2023-01-17T09:26:27.294Z,1.33
2023-01-17T09:28:55.420Z,2.67
2023-01-17T09:31:24.493Z,2.37
2023-01-17T09:33:55.267Z,1.73
2023-01-17T09:36:23.907Z,2.00
2023-01-17T09:38:57.046Z,2.17
2023-01-17T09:41:27.903Z,1.80
2023-01-17T09:44:01.326Z,1.50
2023-01-17T09:46:32.583Z,2.03
2023-01-17T09:49:08.386Z,2.33
2023-01-17T09:51:37.590Z,1.10
2023-01-17T09:54:06.023Z,1.63
2023-01-17T09:56:41.363Z,2.60
2023-01-17T09:59:33.229Z,2.50
2023-01-17T10:02:12.971Z,2.60
2023-01-17T10:04:59.600Z,2.83
2023-01-17T10:07:38.592Z,1.73
2023-01-17T10:10:21.076Z,1.90
2023-01-17T10:12:57.288Z,1.30
2023-01-17T10:16:00.167Z,1.60
2023-01-17T10:18:59.148Z,2.07
2023-01-17T10:21:39.140Z,2.13
2023-01-17T10:24:25.712Z,2.30
2023-01-17T10:26:57.187Z,3.33
2023-01-17T10:29:30.434Z,1.50
2023-01-17T10:32:00.999Z,2.87
2023-01-17T10:34:35.729Z,2.90
2023-01-17T10:37:17.013Z,1.40
2023-01-17T10:39:48.968Z,1.30
2023-01-17T10:42:22.896Z,1.00
2023-01-17T10:44:58.763Z,2.10
2023-01-17T10:47:31.934Z,1.23
2023-01-17T10:50:02.907Z,0.97
2023-01-17T10:52:39.853Z,2.43
2023-01-17T10:55:18.396Z,1.97
2023-01-17T10:57:48.734Z,3.43
2023-01-17T11:00:39.827Z,1.20
2023-01-17T11:03:08.051Z,1.10
2023-01-17T11:05:35.849Z,3.53
2023-01-17T11:08:07.200Z,1.97
2023-01-17T11:10:39.943Z,0.80
2023-01-17T11:13:23.429Z,1.23
2023-01-17T11:15:53.528Z,3.20
2023-01-17T11:18:22.716Z,1.23
2023-01-17T11:20:50.917Z,2.33
2023-01-17T11:23:23.520Z,1.97
2023-01-17T11:25:53.627Z,1.47
2023-01-17T11:28:26.043Z,0.80
2023-01-17T11:30:56.529Z,1.87
2023-01-17T11:33:45.034Z,2.70
2023-01-17T11:36:18.510Z,0.73
2023-01-17T11:38:57.717Z,1.73
2023-01-17T11:41:27.982Z,2.33
2023-01-17T11:43:57.446Z,0.83
2023-01-17T11:46:28.173Z,0.70
2023-01-17T11:48:59.516Z,1.17
2023-01-17T11:51:30.904Z,4.20
2023-01-17T11:54:13.345Z,1.20
2023-01-17T11:56:44.924Z,3.40
2023-01-17T11:59:29.911Z,2.00
2023-01-17T12:02:31.646Z,1.73
2023-01-17T12:05:10.068Z,1.37
2023-01-17T12:07:48.702Z,1.90
2023-01-17T12:10:24.645Z,2.13
2023-01-17T12:13:20.490Z,3.77
2023-01-17T12:16:01.732Z,1.07
2023-01-17T12:18:49.800Z,0.87
2023-01-17T12:21:21.112Z,1.80
2023-01-17T12:24:08.356Z,1.13
2023-01-17T12:26:41.408Z,1.40
2023-01-17T12:29:33.878Z,0.90
2023-01-17T12:32:23.501Z,0.80
2023-01-17T12:34:56.061Z,2.10
2023-01-17T12:37:30.496Z,2.30
2023-01-17T12:40:03.346Z,0.77
2023-01-17T12:42:40.661Z,1.43
2023-01-17T12:45:14.426Z,0.93
2023-01-17T12:47:46.530Z,1.13
2023-01-17T12:50:23.245Z,0.93
2023-01-17T12:53:00.419Z,0.90
2023-01-17T12:55:37.427Z,1.53
2023-01-17T12:58:13.727Z,1.30
2023-01-17T13:00:52.226Z,1.47
2023-01-17T13:03:30.793Z,1.53
2023-01-17T13:05:59.370Z,0.77
2023-01-17T13:08:34.881Z,1.17
2023-01-17T13:11:08.120Z,2.80
2023-01-17T13:13:39.206Z,2.77
2023-01-17T13:16:13.608Z,2.13
2023-01-17T13:18:46.204Z,1.23
2023-01-17T13:21:33.059Z,3.23
2023-01-17T13:24:22.645Z,1.60
2023-01-17T13:27:03.368Z,2.07
2023-01-17T13:29:41.323Z,1.20
2023-01-17T13:32:22.756Z,2.43
2023-01-17T13:35:07.691Z,0.90
2023-01-17T13:37:53.425Z,0.80
2023-01-17T13:40:37.435Z,3.37
2023-01-17T13:43:12.393Z,2.33
2023-01-17T13:45:41.705Z,1.40
2023-01-17T13:48:32.604Z,1.20
2023-01-17T13:51:02.212Z,4.03
2023-01-17T13:53:59.744Z,2.13
2023-01-17T13:56:35.552Z,1.43
2023-01-17T13:59:22.147Z,1.70
2023-01-17T14:01:55.075Z,2.53
2023-01-17T14:04:24.612Z,1.10
2023-01-17T14:07:03.772Z,1.63
2023-01-17T14:09:42.170Z,1.27
2023-01-17T14:12:28.024Z,1.80
2023-01-17T14:14:57.627Z,1.13
2023-01-17T14:17:55.658Z,2.00
2023-01-17T14:20:50.274Z,2.13
2023-01-17T14:23:26.100Z,1.10
2023-01-17T14:25:54.612Z,1.30
2023-01-17T14:28:25.594Z,1.50
2023-01-17T14:30:56.099Z,2.13
2023-01-17T14:33:29.770Z,1.23
2023-01-17T14:35:59.656Z,0.90
2023-01-17T14:38:29.334Z,2.30
2023-01-17T14:40:59.832Z,2.47
2023-01-17T14:43:29.480Z,1.93
2023-01-17T14:45:59.688Z,1.97
2023-01-17T14:48:29.832Z,1.30
2023-01-17T14:51:00.205Z,1.80
2023-01-17T14:53:29.262Z,2.50
2023-01-17T14:56:00.155Z,1.93
2023-01-17T14:58:30.401Z,2.27
2023-01-17T15:01:01.272Z,1.93
2023-01-17T15:03:33.331Z,1.73
2023-01-17T15:06:11.932Z,1.57
2023-01-17T15:08:40.199Z,2.33
2023-01-17T15:11:11.014Z,2.93
2023-01-17T15:13:44.614Z,3.17
2023-01-17T15:16:22.933Z,2.80
2023-01-17T15:18:53.438Z,1.97
2023-01-17T15:21:23.392Z,1.90
2023-01-17T15:23:54.433Z,2.03
2023-01-17T15:26:25.379Z,2.07
2023-01-17T15:28:54.187Z,1.87
2023-01-17T15:31:25.010Z,1.20
2023-01-17T15:33:58.484Z,1.83
2023-01-17T15:36:32.426Z,2.00
2023-01-17T15:39:02.612Z,1.43
2023-01-17T15:41:34.885Z,1.57
2023-01-17T15:44:02.900Z,2.30
2023-01-17T15:46:33.904Z,2.70
2023-01-17T15:49:17.757Z,2.97
2023-01-17T15:51:51.849Z,2.13
2023-01-17T15:54:44.569Z,1.87
2023-01-17T15:57:23.457Z,1.87
2023-01-17T15:59:55.158Z,3.20
2023-01-17T16:02:31.976Z,4.97
2023-01-17T16:05:02.448Z,1.93
2023-01-17T16:07:34.788Z,2.00
2023-01-17T16:10:15.655Z,2.13
2023-01-17T16:12:43.335Z,5.13
2023-01-17T16:15:13.418Z,3.73
2023-01-17T16:17:45.477Z,1.73
2023-01-17T16:20:25.295Z,2.53
2023-01-17T16:22:53.455Z,5.10
2023-01-17T16:25:22.682Z,2.90
2023-01-17T16:27:51.996Z,4.53
2023-01-17T16:30:22.468Z,5.93
2023-01-17T16:32:50.897Z,6.90
2023-01-17T16:35:21.520Z,5.57
2023-01-17T16:37:50.984Z,3.37
2023-01-17T16:40:19.780Z,3.13
2023-01-17T16:42:47.637Z,3.53
2023-01-17T16:45:16.266Z,3.53
2023-01-17T16:47:45.620Z,3.03
2023-01-17T16:50:15.841Z,3.40
2023-01-17T16:52:45.052Z,5.13
2023-01-17T16:55:14.926Z,3.33
2023-01-17T16:57:42.793Z,2.80
2023-01-17T17:00:12.812Z,3.70
2023-01-17T17:02:40.755Z,3.93
2023-01-17T17:05:09.649Z,4.33
2023-01-17T17:07:42.671Z,4.20
2023-01-17T17:10:14.016Z,3.40
2023-01-17T17:12:41.950Z,4.60
2023-01-17T17:15:10.928Z,3.77
2023-01-17T17:17:39.556Z,4.70
2023-01-17T17:20:09.581Z,4.50
2023-01-17T17:22:37.348Z,4.37
2023-01-17T17:25:05.542Z,4.03
2023-01-17T17:27:34.486Z,3.73
2023-01-17T17:30:02.151Z,3.57
2023-01-17T17:32:30.869Z,3.07
2023-01-17T17:34:58.576Z,3.13
2023-01-17T17:37:28.908Z,3.83
2023-01-17T17:39:56.638Z,4.67
2023-01-17T17:42:24.651Z,4.20
2023-01-17T17:44:53.674Z,2.10
2023-01-17T17:47:21.368Z,2.60
2023-01-17T17:49:49.026Z,4.47
2023-01-17T17:52:16.711Z,3.77
2023-01-17T17:54:44.354Z,4.63
2023-01-17T17:57:12.065Z,2.73
2023-01-17T17:59:39.761Z,3.43
2023-01-17T18:02:11.009Z,4.63
2023-01-17T18:04:39.127Z,5.60
2023-01-17T18:07:06.783Z,5.00
2023-01-17T18:09:34.646Z,4.47
2023-01-17T18:12:02.815Z,4.80
2023-01-17T18:14:30.644Z,4.90
2023-01-17T18:16:58.257Z,3.93
2023-01-17T18:19:27.469Z,6.10
2023-01-17T18:21:55.741Z,4.13
2023-01-17T18:24:25.110Z,8.23
2023-01-17T18:26:54.178Z,5.80
2023-01-17T18:29:22.874Z,6.70
2023-01-17T18:31:52.152Z,6.17
2023-01-17T18:34:23.675Z,6.63
2023-01-17T18:36:53.298Z,5.60
2023-01-17T18:39:22.548Z,12.77
2023-01-17T18:41:50.263Z,7.17
2023-01-17T18:44:20.851Z,6.40
2023-01-17T18:46:50.177Z,8.20
2023-01-17T18:49:19.248Z,17.40
2023-01-17T18:51:51.272Z,9.33
2023-01-17T18:54:21.044Z,7.23
2023-01-17T18:56:49.350Z,5.87
2023-01-17T18:59:18.337Z,3.63
2023-01-17T19:01:46.965Z,5.33
2023-01-17T19:04:17.131Z,5.50
2023-01-17T19:06:46.425Z,4.53
2023-01-17T19:09:15.704Z,5.47
2023-01-17T19:11:45.496Z,6.60
2023-01-17T19:14:14.415Z,6.97
2023-01-17T19:16:43.463Z,5.17
2023-01-17T19:19:13.873Z,5.80
2023-01-17T19:21:41.677Z,8.27
2023-01-17T19:24:11.795Z,9.43
2023-01-17T19:26:39.634Z,9.60
2023-01-17T19:29:08.690Z,5.60
2023-01-17T19:31:39.659Z,6.77
2023-01-17T19:34:07.432Z,8.20
2023-01-17T19:36:36.714Z,6.23
2023-01-17T19:39:07.226Z,6.43
2023-01-17T19:41:37.034Z,4.20
2023-01-17T19:44:07.194Z,6.83
2023-01-17T19:46:37.535Z,6.00
2023-01-17T19:49:07.507Z,8.17
2023-01-17T19:51:35.867Z,10.67
2023-01-17T19:54:06.340Z,6.40
2023-01-17T19:56:34.078Z,6.97
2023-01-17T19:59:02.311Z,7.90
2023-01-17T20:01:32.330Z,5.60
2023-01-17T20:04:04.768Z,8.17
2023-01-17T20:06:34.101Z,7.77
2023-01-17T20:09:02.838Z,10.73
2023-01-17T20:11:30.634Z,6.70
2023-01-17T20:14:00.451Z,7.07
2023-01-17T20:16:30.535Z,4.47
2023-01-17T20:18:58.752Z,6.83
2023-01-17T20:21:31.650Z,6.50
2023-01-17T20:24:03.080Z,5.40
2023-01-17T20:26:36.134Z,7.23
2023-01-17T20:29:10.471Z,4.33
2023-01-17T20:31:40.857Z,3.97
2023-01-17T20:34:10.747Z,3.47
2023-01-17T20:36:42.023Z,4.57
2023-01-17T20:39:11.739Z,3.63
2023-01-17T20:41:41.292Z,3.13
2023-01-17T20:44:12.309Z,5.67
2023-01-17T20:46:41.373Z,3.07
2023-01-17T20:49:14.737Z,4.57
2023-01-17T20:51:45.666Z,2.50
2023-01-17T20:54:15.630Z,4.13
2023-01-17T20:56:44.073Z,3.33
2023-01-17T20:59:14.452Z,4.13
2023-01-17T21:01:43.764Z,4.87
2023-01-17T21:04:12.924Z,3.20
2023-01-17T21:06:41.524Z,4.87
2023-01-17T21:09:13.908Z,5.00
2023-01-17T21:11:41.871Z,5.50
2023-01-17T21:14:09.968Z,7.47
2023-01-17T21:16:38.146Z,7.10
2023-01-17T21:19:06.805Z,5.40
2023-01-17T21:21:35.918Z,5.20
2023-01-17T21:24:04.948Z,6.03
2023-01-17T21:26:34.357Z,3.80
2023-01-17T21:29:04.629Z,5.87
2023-01-17T21:31:35.734Z,3.80
2023-01-17T21:34:05.517Z,3.37
2023-01-17T21:36:35.602Z,6.23
2023-01-17T21:39:06.427Z,4.97
2023-01-17T21:41:38.101Z,3.73
2023-01-17T21:44:08.703Z,3.23
2023-01-17T21:46:39.264Z,5.43
2023-01-17T21:49:10.552Z,4.97
2023-01-17T21:51:56.245Z,5.30
2023-01-17T21:54:46.079Z,4.23
2023-01-17T21:57:39.196Z,4.23
2023-01-17T22:00:09.901Z,7.63
2023-01-17T22:02:37.829Z,8.27
2023-01-17T22:05:07.756Z,8.03
2023-01-17T22:07:36.212Z,8.23
2023-01-17T22:10:04.051Z,8.00
2023-01-17T22:12:33.357Z,8.60
2023-01-17T22:15:01.119Z,8.87
2023-01-17T22:17:30.555Z,7.10
2023-01-17T22:19:58.442Z,6.67
2023-01-17T22:22:26.250Z,9.23
2023-01-17T22:24:54.068Z,10.33
2023-01-17T22:27:22.138Z,8.63
2023-01-17T22:29:51.224Z,8.00
2023-01-17T22:32:18.994Z,6.80
2023-01-17T22:34:46.694Z,9.37
2023-01-17T22:37:14.548Z,6.57
2023-01-17T22:39:42.300Z,7.37
2023-01-17T22:42:10.067Z,9.07
2023-01-17T22:44:37.883Z,8.03
2023-01-17T22:47:06.958Z,6.17
2023-01-17T22:49:34.658Z,7.20
2023-01-17T22:52:02.407Z,6.27
2023-01-17T22:54:30.210Z,8.17
2023-01-17T22:56:58.796Z,9.87
2023-01-17T22:59:26.526Z,6.73
2023-01-17T23:01:54.925Z,6.73
2023-01-17T23:04:24.032Z,5.77
2023-01-17T23:06:51.944Z,9.60
2023-01-17T23:09:19.748Z,9.33
2023-01-17T23:11:50.746Z,7.50
2023-01-17T23:14:20.637Z,9.23
2023-01-17T23:17:08.389Z,6.27
2023-01-17T23:19:39.585Z,11.90
2023-01-17T23:22:22.284Z,8.47
2023-01-17T23:24:52.619Z,8.53
2023-01-17T23:27:40.941Z,9.17
2023-01-17T23:30:11.752Z,12.00
2023-01-17T23:32:40.034Z,6.17
2023-01-17T23:35:09.617Z,9.17
2023-01-17T23:37:54.824Z,6.77
2023-01-17T23:40:22.788Z,7.33
2023-01-17T23:43:08.052Z,5.80
2023-01-17T23:45:36.835Z,6.80
2023-01-17T23:48:05.701Z,6.87
2023-01-17T23:50:34.861Z,7.17
2023-01-17T23:53:06.850Z,6.03
2023-01-17T23:55:37.022Z,7.10
2023-01-17T23:58:05.130Z,6.33
